Flight Track Log - Related Links

Times and Time Zones

All times are in EDT time to prevent confusion due to time zone crossing. See the JZA8754 flight status page for this flight to view local times or setup timezone preferences in your user account.

Time Position Orientation Groundspeed Altitude Reporting Facility
EDT Latitude Longitude Course Direction KTS MPH feet Rate Location/Type
Fri 05:58:00 PM 47.8284 -77.4058 127° Southeast  Level Estimated
Fri 05:59:00 PM 47.7832 -77.3308 131° Southeast  Level Estimated
Fri 06:00:00 PM 47.7421 -77.2631 132° Southeast  Level FlightAware Approximate
Fri 06:01:00 PM 47.7010 -77.1956 132° Southeast  Level FlightAware Approximate
Fri 06:02:00 PM 47.6595 -77.1284 133° Southeast  Level FlightAware Approximate
Fri 06:03:00 PM 47.6179 -77.0617 133° Southeast  Level FlightAware Approximate
Fri 06:04:00 PM 47.5762 -76.9950 133° Southeast  Level FlightAware Approximate
Fri 06:05:00 PM 47.5345 -76.9285 133° Southeast  Level FlightAware Approximate
Fri 06:06:00 PM 47.4931 -76.8616 132° Southeast  Level FlightAware Approximate
Fri 06:07:00 PM 47.4519 -76.7945 132° Southeast  Level FlightAware Approximate
Fri 06:08:00 PM 47.4106 -76.7275 132° Southeast  Level FlightAware Approximate
Fri 06:09:00 PM 47.3701 -76.6595 129° Southeast  Level FlightAware Approximate
Fri 06:10:00 PM 47.3314 -76.5894 129° Southeast  Level FlightAware Approximate
Fri 06:11:00 PM 47.2925 -76.5195 129° Southeast  Level FlightAware Approximate
Fri 06:12:00 PM 47.2537 -76.4496 129° Southeast  Level FlightAware Approximate
Fri 06:13:00 PM 47.2146 -76.3800 133° Southeast  Level FlightAware Approximate
Fri 06:14:00 PM 47.1730 -76.3138 133° Southeast  Level FlightAware Approximate
Fri 06:14:15 PM 47.3500 -76.6167 130° Southeast 210 242 20,700  Level Montreal Center
Fri 06:15:00 PM 47.1313 -76.2477 133° Southeast  Level FlightAware Approximate
Fri 06:15:15 PM 47.3167 -76.5667 135° Southeast 220 253 21,200  Level Montreal Center
Fri 06:16:00 PM 47.0896 -76.1817 133° Southeast  Level FlightAware Approximate
Fri 06:16:15 PM 47.2833 -76.4833 121° Southeast 220 253 21,900  Level Montreal Center
Fri 06:17:00 PM 47.0479 -76.1158 133° Southeast  Level FlightAware Approximate
Fri 06:17:15 PM 47.2333 -76.4167 138° Southeast 220 253 22,200  Level Montreal Center
Fri 06:18:00 PM 47.0067 -76.0492 130° Southeast  Level FlightAware Approximate
Fri 06:18:15 PM 47.2000 -76.3333 120° Southeast 230 265 22,700  Level Montreal Center
Fri 06:19:00 PM 46.9674 -75.9802 130° Southeast  Level FlightAware Approximate
Fri 06:19:15 PM 47.1500 -76.2667 138° Southeast 230 265 23,200  Level Montreal Center
Fri 06:20:15 PM 47.1000 -76.2167 146° Southeast 230 265 23,700 400 Climbing Montreal Center
Fri 06:21:15 PM 47.0667 -76.1333 120° Southeast 230 265 24,000 350 Climbing Montreal Center
Fri 06:22:15 PM 47.0167 -76.0667 138° Southeast 230 265 24,400 450 Climbing Montreal Center
Fri 06:23:15 PM 46.9833 -76.0000 126° Southeast 230 265 24,900 100 Climbing Montreal Center
Fri 06:24:15 PM 46.9333 -75.9167 131° Southeast 240 276 24,600 -400 Descending Montreal Center
Fri 06:25:15 PM 46.8833 -75.8167 126° Southeast 270 311 24,100 -500 Descending Montreal Center
Fri 06:26:15 PM 46.8333 -75.7500 138° Southeast 290 334 23,600 -500 Descending Montreal Center
Fri 06:27:15 PM 46.7833 -75.6500 126° Southeast 290 334 23,100 -500 Descending Montreal Center
Fri 06:28:15 PM 46.7333 -75.5833 138° Southeast 280 322 22,600 -500 Descending Montreal Center
Fri 06:29:15 PM 46.6667 -75.4833 134° Southeast 290 334 22,100 -300 Descending Montreal Center
Fri 06:30:15 PM 46.6167 -75.4000 131° Southeast 280 322 22,000 -50 Descending Montreal Center
Fri 06:31:15 PM 46.5667 -75.3333 137° Southeast 270 311 22,000 -550 Level Montreal Center
Fri 06:32:15 PM 46.5167 -75.2333 126° Southeast 280 322 20,900 -1,000 Descending Montreal Center
Fri 06:33:15 PM 46.4667 -75.1667 137° Southeast 300 345 20,000 -1,000 Descending Montreal Center
Fri 06:34:15 PM 46.4000 -75.0667 134° Southeast 300 345 18,900 -1,000 Descending Montreal Center
Fri 06:35:15 PM 46.3500 -74.9667 126° Southeast 300 345 18,000 -900 Descending Montreal Center
Fri 06:36:15 PM 46.2833 -74.8833 139° Southeast 300 345 17,100 -950 Descending Montreal Center
Fri 06:37:15 PM 46.2167 -74.7833 134° Southeast 300 345 16,100 -950 Descending Montreal Center
Fri 06:38:15 PM 46.1667 -74.7167 137° Southeast 290 334 15,200 -900 Descending Montreal Center
Fri 06:39:15 PM 46.1167 -74.6167 126° Southeast 290 334 14,300 -950 Descending Montreal Center
Fri 06:40:15 PM 46.0667 -74.5500 137° Southeast 290 334 13,300 -1,000 Descending Montreal Center
Fri 06:41:15 PM 46.0000 -74.4500 134° Southeast 290 334 12,300 -950 Descending Montreal Center
Fri 06:42:15 PM 45.9500 -74.3833 137° Southeast 290 334 11,400 -900 Descending Montreal Center
Fri 06:43:15 PM 45.8833 -74.3000 139° Southeast 280 322 10,500 -900 Descending Montreal Center
Fri 06:44:15 PM 45.8167 -74.2333 145° Southeast 280 322 9,600 -850 Descending Montreal Center
Fri 06:45:15 PM 45.7667 -74.1667 137° Southeast 270 311 8,800 -850 Descending Montreal Center
Fri 06:46:15 PM 45.7167 -74.1000 137° Southeast 260 299 7,900 -800 Descending Montreal Center
Fri 06:47:15 PM 45.7000 -74.0000 103° East 260 299 7,200 -800 Descending Montreal Center
Fri 06:48:15 PM 45.6500 -73.9000 126° Southeast 260 299 6,300 -800 Descending Montreal Center
Fri 06:49:15 PM 45.6333 -73.8167 106° East 240 276 5,600 -900 Descending Montreal Center
Fri 06:50:15 PM 45.6333 -73.7333 90° East 220 253 4,500 -800 Descending Montreal Center
Fri 06:51:15 PM 45.6333 -73.6500 90° East 210 242 4,000 -500 Descending Montreal Center
Fri 06:52:15 PM 45.5833 -73.6000 145° Southeast 220 253 3,500 -900 Descending Montreal Center
Fri 06:53:15 PM 45.5333 -73.6167 193° South 180 207 2,200 -1,200 Descending Montreal Center
Fri 06:54:15 PM 45.5000 -73.6667 226° Southwest 170 196 1,100 -900 Descending Montreal Center
Fri 06:55:15 PM 45.4667 -73.7000 215° Southwest 130 150 400 -500 Descending Montreal Center
Fri 06:56:15 PM 45.4500 -73.7167 215° Southwest 70 81 100 -300 Descending Montreal Center

Login

Don't have an account? Register now (free) for customized features, flight alerts, and more!